sensor_id;sensor_type;location;lat;lon;timestamp;pressure;altitude;pressure_sealevel;temperature;humidity
16190;BME280;41754;51.498;7.540;2023-02-22T00:00:44;100255.41;;;15.23;47.47
16190;BME280;41754;51.498;7.540;2023-02-22T00:03:17;100251.19;;;15.62;46.99
16190;BME280;41754;51.498;7.540;2023-02-22T00:05:52;100245.50;;;15.59;46.57
16190;BME280;41754;51.498;7.540;2023-02-22T00:08:23;100248.22;;;15.22;47.71
16190;BME280;41754;51.498;7.540;2023-02-22T00:10:55;100244.34;;;15.47;46.76
16190;BME280;41754;51.498;7.540;2023-02-22T00:13:23;100238.38;;;15.82;46.84
16190;BME280;41754;51.498;7.540;2023-02-22T00:15:55;100242.72;;;15.59;47.32
16190;BME280;41754;51.498;7.540;2023-02-22T00:18:23;100236.34;;;15.34;48.01
16190;BME280;41754;51.498;7.540;2023-02-22T00:20:53;100236.50;;;15.49;47.50
16190;BME280;41754;51.498;7.540;2023-02-22T00:23:22;100237.84;;;15.19;48.52
16190;BME280;41754;51.498;7.540;2023-02-22T00:25:51;100227.91;;;14.85;48.45
16190;BME280;41754;51.498;7.540;2023-02-22T00:28:19;100228.19;;;15.37;47.99
16190;BME280;41754;51.498;7.540;2023-02-22T00:30:50;100232.97;;;15.04;48.15
16190;BME280;41754;51.498;7.540;2023-02-22T00:33:20;100223.56;;;14.63;48.44
16190;BME280;41754;51.498;7.540;2023-02-22T00:35:48;100227.66;;;14.99;48.59
16190;BME280;41754;51.498;7.540;2023-02-22T00:38:17;100226.34;;;15.54;46.76
16190;BME280;41754;51.498;7.540;2023-02-22T00:40:47;100226.03;;;15.10;47.95
16190;BME280;41754;51.498;7.540;2023-02-22T00:43:15;100219.84;;;14.59;47.86
16190;BME280;41754;51.498;7.540;2023-02-22T00:45:43;100222.19;;;14.90;48.99
16190;BME280;41754;51.498;7.540;2023-02-22T00:48:11;100219.38;;;14.36;49.28
16190;BME280;41754;51.498;7.540;2023-02-22T00:50:39;100215.78;;;14.56;49.67
16190;BME280;41754;51.498;7.540;2023-02-22T00:53:07;100212.69;;;14.79;48.87
16190;BME280;41754;51.498;7.540;2023-02-22T00:55:36;100208.44;;;14.94;48.19
16190;BME280;41754;51.498;7.540;2023-02-22T00:58:06;100215.47;;;15.24;48.15
16190;BME280;41754;51.498;7.540;2023-02-22T01:00:36;100207.72;;;14.84;48.95
16190;BME280;41754;51.498;7.540;2023-02-22T01:03:04;100205.78;;;14.64;48.79
16190;BME280;41754;51.498;7.540;2023-02-22T01:05:33;100207.25;;;14.82;49.15
16190;BME280;41754;51.498;7.540;2023-02-22T01:08:03;100201.41;;;14.63;48.53
16190;BME280;41754;51.498;7.540;2023-02-22T01:10:33;100204.59;;;14.74;48.96
16190;BME280;41754;51.498;7.540;2023-02-22T01:13:02;100204.88;;;14.39;49.11
16190;BME280;41754;51.498;7.540;2023-02-22T01:15:37;100208.38;;;15.14;48.46
16190;BME280;41754;51.498;7.540;2023-02-22T01:18:06;100194.44;;;14.57;49.67
16190;BME280;41754;51.498;7.540;2023-02-22T01:20:34;100197.31;;;14.27;50.14
16190;BME280;41754;51.498;7.540;2023-02-22T01:23:04;100195.22;;;14.03;50.31
16190;BME280;41754;51.498;7.540;2023-02-22T01:25:34;100198.66;;;14.21;50.04
16190;BME280;41754;51.498;7.540;2023-02-22T01:28:05;100190.28;;;13.88;50.63
16190;BME280;41754;51.498;7.540;2023-02-22T01:30:34;100187.88;;;14.28;49.95
16190;BME280;41754;51.498;7.540;2023-02-22T01:33:05;100179.34;;;14.33;49.80
16190;BME280;41754;51.498;7.540;2023-02-22T01:35:36;100179.03;;;14.68;48.56
16190;BME280;41754;51.498;7.540;2023-02-22T01:38:07;100175.53;;;14.80;48.09
16190;BME280;41754;51.498;7.540;2023-02-22T01:40:36;100172.13;;;14.20;49.70
16190;BME280;41754;51.498;7.540;2023-02-22T01:43:14;100169.25;;;14.17;49.33
16190;BME280;41754;51.498;7.540;2023-02-22T01:45:57;100165.69;;;14.70;47.96
16190;BME280;41754;51.498;7.540;2023-02-22T01:48:34;100167.50;;;14.66;48.14
16190;BME280;41754;51.498;7.540;2023-02-22T01:51:08;100158.69;;;14.31;49.16
16190;BME280;41754;51.498;7.540;2023-02-22T01:53:40;100161.25;;;13.73;50.46
16190;BME280;41754;51.498;7.540;2023-02-22T01:56:10;100154.78;;;14.32;48.60
16190;BME280;41754;51.498;7.540;2023-02-22T01:58:42;100153.25;;;13.81;49.83
16190;BME280;41754;51.498;7.540;2023-02-22T02:01:12;100156.59;;;13.86;49.78
16190;BME280;41754;51.498;7.540;2023-02-22T02:03:43;100149.91;;;13.66;49.60
16190;BME280;41754;51.498;7.540;2023-02-22T02:06:15;100150.28;;;13.27;50.04
16190;BME280;41754;51.498;7.540;2023-02-22T02:08:48;100148.25;;;13.36;50.30
16190;BME280;41754;51.498;7.540;2023-02-22T02:11:22;100150.03;;;13.99;48.64
16190;BME280;41754;51.498;7.540;2023-02-22T02:13:52;100153.38;;;14.05;48.83
16190;BME280;41754;51.498;7.540;2023-02-22T02:16:22;100152.56;;;13.54;48.91
16190;BME280;41754;51.498;7.540;2023-02-22T02:18:53;100150.56;;;13.93;48.10
16190;BME280;41754;51.498;7.540;2023-02-22T02:21:40;100137.72;;;13.38;48.38
16190;BME280;41754;51.498;7.540;2023-02-22T02:24:41;100143.94;;;12.88;49.11
16190;BME280;41754;51.498;7.540;2023-02-22T02:27:17;100145.72;;;13.22;48.89
16190;BME280;41754;51.498;7.540;2023-02-22T02:32:51;100146.16;;;13.71;47.85
16190;BME280;41754;51.498;7.540;2023-02-22T02:35:28;100136.38;;;13.44;49.01
16190;BME280;41754;51.498;7.540;2023-02-22T02:38:03;100136.06;;;13.75;47.73
16190;BME280;41754;51.498;7.540;2023-02-22T02:40:38;100134.31;;;13.32;49.07
16190;BME280;41754;51.498;7.540;2023-02-22T02:43:14;100133.41;;;13.49;48.39
16190;BME280;41754;51.498;7.540;2023-02-22T02:45:46;100133.50;;;13.32;48.42
16190;BME280;41754;51.498;7.540;2023-02-22T02:48:20;100130.88;;;13.65;47.87
16190;BME280;41754;51.498;7.540;2023-02-22T02:50:50;100126.47;;;13.13;49.18
16190;BME280;41754;51.498;7.540;2023-02-22T02:53:21;100115.69;;;13.21;48.90
16190;BME280;41754;51.498;7.540;2023-02-22T02:55:51;100119.47;;;13.75;48.73
16190;BME280;41754;51.498;7.540;2023-02-22T02:58:22;100113.41;;;13.52;48.45
16190;BME280;41754;51.498;7.540;2023-02-22T03:00:54;100107.97;;;13.85;48.24
16190;BME280;41754;51.498;7.540;2023-02-22T03:06:33;100106.75;;;13.74;47.65
16190;BME280;41754;51.498;7.540;2023-02-22T03:09:13;100106.81;;;12.68;49.58
16190;BME280;41754;51.498;7.540;2023-02-22T03:11:48;100101.50;;;13.31;48.63
16190;BME280;41754;51.498;7.540;2023-02-22T03:14:23;100095.72;;;13.44;48.48
16190;BME280;41754;51.498;7.540;2023-02-22T03:17:00;100097.38;;;13.37;48.69
16190;BME280;41754;51.498;7.540;2023-02-22T03:19:37;100098.31;;;12.82;49.22
16190;BME280;41754;51.498;7.540;2023-02-22T03:22:11;100084.47;;;12.91;49.74
16190;BME280;41754;51.498;7.540;2023-02-22T03:24:45;100086.72;;;13.27;49.10
16190;BME280;41754;51.498;7.540;2023-02-22T03:27:22;100091.09;;;12.98;49.03
16190;BME280;41754;51.498;7.540;2023-02-22T03:29:57;100084.75;;;12.42;49.95
16190;BME280;41754;51.498;7.540;2023-02-22T03:32:37;100079.84;;;12.56;50.38
16190;BME280;41754;51.498;7.540;2023-02-22T03:35:11;100080.59;;;12.83;50.03
16190;BME280;41754;51.498;7.540;2023-02-22T03:37:44;100076.28;;;12.65;49.51
16190;BME280;41754;51.498;7.540;2023-02-22T03:40:15;100077.72;;;13.09;48.74
16190;BME280;41754;51.498;7.540;2023-02-22T03:42:54;100076.22;;;13.11;48.03
16190;BME280;41754;51.498;7.540;2023-02-22T03:45:26;100076.22;;;13.62;47.70
16190;BME280;41754;51.498;7.540;2023-02-22T03:48:01;100066.78;;;12.83;48.49
16190;BME280;41754;51.498;7.540;2023-02-22T03:50:33;100068.28;;;12.80;48.12
16190;BME280;41754;51.498;7.540;2023-02-22T03:53:04;100069.31;;;12.67;48.93
16190;BME280;41754;51.498;7.540;2023-02-22T03:55:35;100064.88;;;12.75;48.97
16190;BME280;41754;51.498;7.540;2023-02-22T03:58:05;100064.78;;;12.63;48.75
16190;BME280;41754;51.498;7.540;2023-02-22T04:00:36;100068.13;;;12.77;48.25
16190;BME280;41754;51.498;7.540;2023-02-22T04:03:04;100069.16;;;12.64;47.90
16190;BME280;41754;51.498;7.540;2023-02-22T04:05:33;100066.94;;;12.31;49.35
16190;BME280;41754;51.498;7.540;2023-02-22T04:08:01;100055.50;;;12.58;48.27
16190;BME280;41754;51.498;7.540;2023-02-22T04:10:30;100056.16;;;12.55;48.57
16190;BME280;41754;51.498;7.540;2023-02-22T04:12:59;100060.47;;;12.10;49.07
16190;BME280;41754;51.498;7.540;2023-02-22T04:15:27;100053.34;;;12.09;48.84
16190;BME280;41754;51.498;7.540;2023-02-22T04:18:02;100052.06;;;12.15;48.81
16190;BME280;41754;51.498;7.540;2023-02-22T04:20:30;100056.91;;;12.01;49.13
16190;BME280;41754;51.498;7.540;2023-02-22T04:23:05;100054.50;;;11.82;49.02
16190;BME280;41754;51.498;7.540;2023-02-22T04:25:36;100059.06;;;11.69;49.69
16190;BME280;41754;51.498;7.540;2023-02-22T04:28:09;100045.53;;;12.11;48.64
16190;BME280;41754;51.498;7.540;2023-02-22T04:30:57;100046.03;;;12.13;47.80
16190;BME280;41754;51.498;7.540;2023-02-22T04:33:27;100046.81;;;12.22;47.83
16190;BME280;41754;51.498;7.540;2023-02-22T04:35:55;100047.16;;;11.43;49.16
16190;BME280;41754;51.498;7.540;2023-02-22T04:38:25;100040.72;;;11.82;48.55
16190;BME280;41754;51.498;7.540;2023-02-22T04:40:55;100041.03;;;11.72;48.69
16190;BME280;41754;51.498;7.540;2023-02-22T04:43:23;100039.09;;;11.55;48.87
16190;BME280;41754;51.498;7.540;2023-02-22T04:45:58;100032.38;;;12.25;47.51
16190;BME280;41754;51.498;7.540;2023-02-22T04:48:26;100032.09;;;11.40;48.77
16190;BME280;41754;51.498;7.540;2023-02-22T04:50:53;100032.94;;;11.58;48.74
16190;BME280;41754;51.498;7.540;2023-02-22T04:53:22;100022.06;;;11.87;48.01
16190;BME280;41754;51.498;7.540;2023-02-22T04:55:51;100021.75;;;11.89;47.57
16190;BME280;41754;51.498;7.540;2023-02-22T04:58:19;100025.91;;;12.12;46.75
16190;BME280;41754;51.498;7.540;2023-02-22T05:00:47;100019.66;;;11.68;48.06
16190;BME280;41754;51.498;7.540;2023-02-22T05:03:15;100021.59;;;11.68;47.19
16190;BME280;41754;51.498;7.540;2023-02-22T05:05:43;100016.53;;;11.96;47.29
16190;BME280;41754;51.498;7.540;2023-02-22T05:08:11;100022.19;;;11.99;46.77
16190;BME280;41754;51.498;7.540;2023-02-22T05:10:39;100006.78;;;12.16;47.13
16190;BME280;41754;51.498;7.540;2023-02-22T05:13:08;100014.78;;;11.57;47.92
16190;BME280;41754;51.498;7.540;2023-02-22T05:15:36;100006.19;;;11.76;47.54
16190;BME280;41754;51.498;7.540;2023-02-22T05:18:04;100008.81;;;11.55;48.22
16190;BME280;41754;51.498;7.540;2023-02-22T05:20:33;100017.03;;;11.29;48.36
16190;BME280;41754;51.498;7.540;2023-02-22T05:23:02;100006.03;;;11.55;48.53
16190;BME280;41754;51.498;7.540;2023-02-22T05:25:31;100004.38;;;11.28;48.65
16190;BME280;41754;51.498;7.540;2023-02-22T05:28:01;100011.22;;;11.48;48.33
16190;BME280;41754;51.498;7.540;2023-02-22T05:30:34;100006.84;;;11.81;47.41
16190;BME280;41754;51.498;7.540;2023-02-22T05:33:02;100002.91;;;11.22;48.47
16190;BME280;41754;51.498;7.540;2023-02-22T05:35:30;100016.63;;;10.96;49.10
16190;BME280;41754;51.498;7.540;2023-02-22T05:37:58;100016.78;;;10.99;48.97
16190;BME280;41754;51.498;7.540;2023-02-22T05:40:29;100007.50;;;10.69;48.94
16190;BME280;41754;51.498;7.540;2023-02-22T05:42:57;100017.31;;;11.10;48.09
16190;BME280;41754;51.498;7.540;2023-02-22T05:45:26;100017.16;;;11.24;48.12
16190;BME280;41754;51.498;7.540;2023-02-22T05:47:56;100014.44;;;11.32;47.55
16190;BME280;41754;51.498;7.540;2023-02-22T05:50:24;100013.31;;;11.51;47.89
16190;BME280;41754;51.498;7.540;2023-02-22T05:52:53;100013.75;;;11.18;47.98
16190;BME280;41754;51.498;7.540;2023-02-22T05:55:22;100010.84;;;11.23;47.92
16190;BME280;41754;51.498;7.540;2023-02-22T05:57:50;100012.81;;;11.31;47.70
16190;BME280;41754;51.498;7.540;2023-02-22T06:00:25;100012.19;;;11.69;46.58
16190;BME280;41754;51.498;7.540;2023-02-22T06:02:56;100013.19;;;10.81;48.19
16190;BME280;41754;51.498;7.540;2023-02-22T06:05:25;100011.09;;;10.78;48.40
16190;BME280;41754;51.498;7.540;2023-02-22T06:07:53;100006.97;;;11.42;47.07
16190;BME280;41754;51.498;7.540;2023-02-22T06:10:21;100013.38;;;10.94;48.45
16190;BME280;41754;51.498;7.540;2023-02-22T06:12:49;100008.22;;;11.01;48.34
16190;BME280;41754;51.498;7.540;2023-02-22T06:15:19;100004.22;;;11.42;47.22
16190;BME280;41754;51.498;7.540;2023-02-22T06:17:47;100011.66;;;10.58;48.94
16190;BME280;41754;51.498;7.540;2023-02-22T06:20:19;100013.97;;;11.56;47.00
16190;BME280;41754;51.498;7.540;2023-02-22T06:22:48;100008.25;;;11.18;47.14
16190;BME280;41754;51.498;7.540;2023-02-22T06:25:18;100008.47;;;10.73;48.77
16190;BME280;41754;51.498;7.540;2023-02-22T06:27:46;100013.97;;;10.73;48.83
16190;BME280;41754;51.498;7.540;2023-02-22T06:30:17;100008.91;;;11.32;47.87
16190;BME280;41754;51.498;7.540;2023-02-22T06:32:45;100003.72;;;11.22;47.79
16190;BME280;41754;51.498;7.540;2023-02-22T06:35:13;100009.59;;;11.47;47.29
16190;BME280;41754;51.498;7.540;2023-02-22T06:37:42;100008.97;;;11.67;46.90
16190;BME280;41754;51.498;7.540;2023-02-22T06:40:11;100013.84;;;11.53;47.17
16190;BME280;41754;51.498;7.540;2023-02-22T06:42:39;100013.19;;;10.81;48.93
16190;BME280;41754;51.498;7.540;2023-02-22T06:45:08;100008.53;;;10.91;48.78
16190;BME280;41754;51.498;7.540;2023-02-22T06:47:37;100014.66;;;10.17;49.91
16190;BME280;41754;51.498;7.540;2023-02-22T06:50:07;100015.16;;;10.41;49.77
16190;BME280;41754;51.498;7.540;2023-02-22T06:52:35;100004.09;;;10.72;48.99
16190;BME280;41754;51.498;7.540;2023-02-22T06:55:04;100007.53;;;10.87;49.13
16190;BME280;41754;51.498;7.540;2023-02-22T06:57:32;100006.81;;;10.64;49.23
16190;BME280;41754;51.498;7.540;2023-02-22T07:00:00;100004.69;;;11.18;48.49
16190;BME280;41754;51.498;7.540;2023-02-22T07:02:28;100002.63;;;11.58;47.44
16190;BME280;41754;51.498;7.540;2023-02-22T07:04:56;100004.38;;;11.36;47.57
16190;BME280;41754;51.498;7.540;2023-02-22T07:07:24;99997.75;;;11.72;47.45
16190;BME280;41754;51.498;7.540;2023-02-22T07:09:52;100004.72;;;11.44;47.29
16190;BME280;41754;51.498;7.540;2023-02-22T07:12:21;100008.91;;;11.15;48.12
16190;BME280;41754;51.498;7.540;2023-02-22T07:14:49;100001.81;;;11.66;47.15
16190;BME280;41754;51.498;7.540;2023-02-22T07:17:16;100003.22;;;11.98;46.39
16190;BME280;41754;51.498;7.540;2023-02-22T07:19:44;100008.31;;;11.70;46.60
16190;BME280;41754;51.498;7.540;2023-02-22T07:22:12;99999.19;;;11.44;46.73
16190;BME280;41754;51.498;7.540;2023-02-22T07:24:40;100009.72;;;11.24;47.83
16190;BME280;41754;51.498;7.540;2023-02-22T07:27:08;100005.69;;;11.82;47.11
16190;BME280;41754;51.498;7.540;2023-02-22T07:29:37;100005.16;;;11.02;48.14
16190;BME280;41754;51.498;7.540;2023-02-22T07:32:05;100008.47;;;11.48;47.81
16190;BME280;41754;51.498;7.540;2023-02-22T07:34:33;100006.16;;;11.93;46.62
16190;BME280;41754;51.498;7.540;2023-02-22T07:37:01;100001.28;;;12.07;46.46
16190;BME280;41754;51.498;7.540;2023-02-22T07:39:28;100008.28;;;12.51;45.75
16190;BME280;41754;51.498;7.540;2023-02-22T07:41:56;99998.84;;;12.61;45.32
16190;BME280;41754;51.498;7.540;2023-02-22T07:44:27;100001.88;;;12.77;45.52
16190;BME280;41754;51.498;7.540;2023-02-22T07:46:56;99999.09;;;12.39;45.68
16190;BME280;41754;51.498;7.540;2023-02-22T07:49:24;100003.91;;;12.50;46.40
16190;BME280;41754;51.498;7.540;2023-02-22T07:51:52;99999.00;;;12.65;45.93
16190;BME280;41754;51.498;7.540;2023-02-22T07:54:20;99995.47;;;13.14;45.00
16190;BME280;41754;51.498;7.540;2023-02-22T07:56:48;99999.09;;;13.48;44.17
16190;BME280;41754;51.498;7.540;2023-02-22T07:59:16;99991.56;;;13.57;44.38
16190;BME280;41754;51.498;7.540;2023-02-22T08:01:43;99987.81;;;14.28;43.18
16190;BME280;41754;51.498;7.540;2023-02-22T08:04:13;99989.44;;;13.96;43.46
16190;BME280;41754;51.498;7.540;2023-02-22T08:06:40;99992.25;;;14.08;43.67
16190;BME280;41754;51.498;7.540;2023-02-22T08:09:11;99988.13;;;13.81;44.43
16190;BME280;41754;51.498;7.540;2023-02-22T08:11:39;99989.31;;;13.92;44.16
16190;BME280;41754;51.498;7.540;2023-02-22T08:14:07;99981.81;;;13.93;45.20
16190;BME280;41754;51.498;7.540;2023-02-22T08:16:35;99981.06;;;14.05;43.98
16190;BME280;41754;51.498;7.540;2023-02-22T08:19:02;99979.50;;;14.40;44.31
16190;BME280;41754;51.498;7.540;2023-02-22T08:21:32;99973.06;;;14.60;43.91
16190;BME280;41754;51.498;7.540;2023-02-22T08:23:59;99971.56;;;14.63;43.79
16190;BME280;41754;51.498;7.540;2023-02-22T08:26:27;99976.66;;;14.85;44.14
16190;BME280;41754;51.498;7.540;2023-02-22T08:28:55;99968.03;;;14.75;44.76
16190;BME280;41754;51.498;7.540;2023-02-22T08:31:23;99966.31;;;15.23;43.49
16190;BME280;41754;51.498;7.540;2023-02-22T08:33:51;99968.63;;;15.20;43.68
16190;BME280;41754;51.498;7.540;2023-02-22T08:36:18;99965.72;;;15.41;43.60
16190;BME280;41754;51.498;7.540;2023-02-22T08:38:48;99963.41;;;15.31;44.13
16190;BME280;41754;51.498;7.540;2023-02-22T08:41:15;99961.03;;;15.58;43.72
16190;BME280;41754;51.498;7.540;2023-02-22T08:43:44;99960.34;;;15.61;43.81
16190;BME280;41754;51.498;7.540;2023-02-22T08:46:11;99954.53;;;16.10;43.07
16190;BME280;41754;51.498;7.540;2023-02-22T08:48:48;99953.50;;;16.77;41.78
16190;BME280;41754;51.498;7.540;2023-02-22T08:51:16;99956.56;;;16.56;41.97
16190;BME280;41754;51.498;7.540;2023-02-22T08:53:44;99955.56;;;16.80;42.19
16190;BME280;41754;51.498;7.540;2023-02-22T08:56:13;99954.69;;;17.11;41.81
16190;BME280;41754;51.498;7.540;2023-02-22T08:58:41;99943.31;;;17.36;41.05
16190;BME280;41754;51.498;7.540;2023-02-22T09:01:09;99948.72;;;17.67;40.42
16190;BME280;41754;51.498;7.540;2023-02-22T09:03:39;99947.63;;;18.14;40.13
16190;BME280;41754;51.498;7.540;2023-02-22T09:06:07;99939.00;;;18.95;39.21
16190;BME280;41754;51.498;7.540;2023-02-22T09:08:35;99936.19;;;18.91;38.16
16190;BME280;41754;51.498;7.540;2023-02-22T09:11:03;99941.34;;;18.40;39.89
16190;BME280;41754;51.498;7.540;2023-02-22T09:13:32;99941.34;;;19.16;38.83
16190;BME280;41754;51.498;7.540;2023-02-22T09:16:00;99931.69;;;19.40;38.05
16190;BME280;41754;51.498;7.540;2023-02-22T09:18:28;99928.44;;;20.01;37.10
16190;BME280;41754;51.498;7.540;2023-02-22T09:21:10;99930.59;;;20.19;37.03
16190;BME280;41754;51.498;7.540;2023-02-22T09:23:38;99924.19;;;20.18;36.88
16190;BME280;41754;51.498;7.540;2023-02-22T09:26:07;99922.81;;;20.42;37.08
16190;BME280;41754;51.498;7.540;2023-02-22T09:28:37;99922.44;;;20.98;36.62
16190;BME280;41754;51.498;7.540;2023-02-22T09:31:04;99919.50;;;20.73;35.87
16190;BME280;41754;51.498;7.540;2023-02-22T09:33:32;99921.13;;;20.78;35.72
16190;BME280;41754;51.498;7.540;2023-02-22T09:36:00;99922.19;;;21.28;35.23
16190;BME280;41754;51.498;7.540;2023-02-22T09:38:28;99915.13;;;21.49;34.14
16190;BME280;41754;51.498;7.540;2023-02-22T09:41:08;99922.81;;;21.70;32.33
16190;BME280;41754;51.498;7.540;2023-02-22T09:43:44;99919.66;;;21.96;32.25
16190;BME280;41754;51.498;7.540;2023-02-22T09:46:21;99911.94;;;21.47;30.47
16190;BME280;41754;51.498;7.540;2023-02-22T09:48:58;99923.31;;;22.25;31.32
16190;BME280;41754;51.498;7.540;2023-02-22T09:51:30;99921.75;;;22.74;31.53
16190;BME280;41754;51.498;7.540;2023-02-22T09:54:04;99912.91;;;22.26;29.82
16190;BME280;41754;51.498;7.540;2023-02-22T09:56:33;99916.94;;;22.50;30.53
16190;BME280;41754;51.498;7.540;2023-02-22T09:59:05;99909.41;;;20.18;31.48
16190;BME280;41754;51.498;7.540;2023-02-22T10:01:38;99909.59;;;21.70;29.42
16190;BME280;41754;51.498;7.540;2023-02-22T10:04:10;99902.91;;;22.39;29.78
16190;BME280;41754;51.498;7.540;2023-02-22T10:06:57;99896.84;;;23.01;29.71
16190;BME280;41754;51.498;7.540;2023-02-22T10:09:35;99903.31;;;22.73;29.04
16190;BME280;41754;51.498;7.540;2023-02-22T10:12:11;99901.31;;;22.56;29.55
16190;BME280;41754;51.498;7.540;2023-02-22T10:15:06;99891.78;;;23.66;28.17
16190;BME280;41754;51.498;7.540;2023-02-22T10:17:43;99895.22;;;23.03;28.97
16190;BME280;41754;51.498;7.540;2023-02-22T10:20:32;99890.81;;;23.10;28.57
16190;BME280;41754;51.498;7.540;2023-02-22T10:23:14;99889.25;;;22.66;28.64
16190;BME280;41754;51.498;7.540;2023-02-22T10:25:50;99887.28;;;22.77;28.37
16190;BME280;41754;51.498;7.540;2023-02-22T10:28:21;99888.88;;;22.42;29.69
16190;BME280;41754;51.498;7.540;2023-02-22T10:30:54;99888.72;;;23.42;28.25
16190;BME280;41754;51.498;7.540;2023-02-22T10:33:28;99884.16;;;23.70;27.12
16190;BME280;41754;51.498;7.540;2023-02-22T10:35:57;99882.59;;;23.58;28.20
16190;BME280;41754;51.498;7.540;2023-02-22T10:38:30;99888.72;;;23.42;28.06
16190;BME280;41754;51.498;7.540;2023-02-22T10:41:02;99886.50;;;22.80;28.83
16190;BME280;41754;51.498;7.540;2023-02-22T10:43:42;99876.56;;;23.59;27.40
16190;BME280;41754;51.498;7.540;2023-02-22T10:46:14;99867.41;;;23.48;27.96
16190;BME280;41754;51.498;7.540;2023-02-22T10:48:46;99877.91;;;23.30;28.15
16190;BME280;41754;51.498;7.540;2023-02-22T10:51:15;99879.88;;;23.40;28.06
16190;BME280;41754;51.498;7.540;2023-02-22T10:53:44;99871.13;;;24.49;27.13
16190;BME280;41754;51.498;7.540;2023-02-22T10:56:21;99871.06;;;23.34;27.03
16190;BME280;41754;51.498;7.540;2023-02-22T10:58:52;99872.00;;;24.84;26.63
16190;BME280;41754;51.498;7.540;2023-02-22T11:01:26;99866.03;;;24.78;25.94
16190;BME280;41754;51.498;7.540;2023-02-22T11:03:57;99873.69;;;24.33;26.33
16190;BME280;41754;51.498;7.540;2023-02-22T11:06:25;99864.31;;;24.88;25.55
16190;BME280;41754;51.498;7.540;2023-02-22T11:09:03;99863.53;;;25.52;25.55
16190;BME280;41754;51.498;7.540;2023-02-22T11:11:32;99865.56;;;26.32;24.91
16190;BME280;41754;51.498;7.540;2023-02-22T11:14:00;99861.91;;;26.59;23.66
16190;BME280;41754;51.498;7.540;2023-02-22T11:16:31;99869.53;;;26.81;23.64
16190;BME280;41754;51.498;7.540;2023-02-22T11:19:08;99856.91;;;27.09;23.11
16190;BME280;41754;51.498;7.540;2023-02-22T11:21:38;99859.53;;;27.40;22.28
16190;BME280;41754;51.498;7.540;2023-02-22T11:24:07;99853.09;;;26.57;23.45
16190;BME280;41754;51.498;7.540;2023-02-22T11:26:39;99853.00;;;27.95;22.01
16190;BME280;41754;51.498;7.540;2023-02-22T11:29:12;99845.41;;;27.92;21.67
16190;BME280;41754;51.498;7.540;2023-02-22T11:31:43;99838.88;;;27.59;21.92
16190;BME280;41754;51.498;7.540;2023-02-22T11:34:30;99837.13;;;28.02;21.80
16190;BME280;41754;51.498;7.540;2023-02-22T11:37:14;99831.50;;;25.69;23.87
16190;BME280;41754;51.498;7.540;2023-02-22T11:39:43;99834.47;;;26.59;23.61
16190;BME280;41754;51.498;7.540;2023-02-22T11:42:20;99828.00;;;27.94;21.55
16190;BME280;41754;51.498;7.540;2023-02-22T11:45:01;99825.94;;;26.39;22.34
16190;BME280;41754;51.498;7.540;2023-02-22T11:47:45;99829.94;;;26.18;23.10
16190;BME280;41754;51.498;7.540;2023-02-22T11:50:21;99816.56;;;26.69;23.07
16190;BME280;41754;51.498;7.540;2023-02-22T11:53:01;99824.47;;;27.18;21.33
16190;BME280;41754;51.498;7.540;2023-02-22T11:55:34;99810.06;;;27.84;21.07
16190;BME280;41754;51.498;7.540;2023-02-22T11:58:25;99816.78;;;28.39;20.42
16190;BME280;41754;51.498;7.540;2023-02-22T12:01:01;99809.09;;;27.91;20.39
16190;BME280;41754;51.498;7.540;2023-02-22T12:04:00;99805.59;;;28.94;20.26
16190;BME280;41754;51.498;7.540;2023-02-22T12:06:43;99798.47;;;28.11;20.10
16190;BME280;41754;51.498;7.540;2023-02-22T12:09:17;99805.09;;;27.72;19.93
16190;BME280;41754;51.498;7.540;2023-02-22T12:11:57;99807.31;;;27.64;19.82
16190;BME280;41754;51.498;7.540;2023-02-22T12:14:39;99798.59;;;25.35;22.11
16190;BME280;41754;51.498;7.540;2023-02-22T12:17:21;99798.50;;;25.97;21.77
16190;BME280;41754;51.498;7.540;2023-02-22T12:19:56;99796.47;;;24.41;23.28
16190;BME280;41754;51.498;7.540;2023-02-22T12:22:30;99797.59;;;26.03;21.52
16190;BME280;41754;51.498;7.540;2023-02-22T12:25:02;99795.28;;;26.65;21.71
16190;BME280;41754;51.498;7.540;2023-02-22T12:27:38;99782.66;;;25.79;21.73
16190;BME280;41754;51.498;7.540;2023-02-22T12:30:13;99787.91;;;26.28;21.99
16190;BME280;41754;51.498;7.540;2023-02-22T12:32:45;99791.19;;;27.61;20.21
16190;BME280;41754;51.498;7.540;2023-02-22T12:35:20;99783.91;;;27.64;20.47
16190;BME280;41754;51.498;7.540;2023-02-22T12:37:55;99783.63;;;28.98;19.34
16190;BME280;41754;51.498;7.540;2023-02-22T12:40:32;99782.31;;;29.15;19.20
16190;BME280;41754;51.498;7.540;2023-02-22T12:43:07;99781.09;;;28.87;19.69
16190;BME280;41754;51.498;7.540;2023-02-22T12:45:46;99779.22;;;28.39;19.64
16190;BME280;41754;51.498;7.540;2023-02-22T12:48:24;99772.91;;;27.14;20.66
16190;BME280;41754;51.498;7.540;2023-02-22T12:50:58;99781.03;;;27.48;20.78
16190;BME280;41754;51.498;7.540;2023-02-22T12:53:33;99769.91;;;26.41;21.47
16190;BME280;41754;51.498;7.540;2023-02-22T12:56:14;99770.50;;;27.48;20.79
16190;BME280;41754;51.498;7.540;2023-02-22T12:58:47;99768.72;;;27.02;21.22
16190;BME280;41754;51.498;7.540;2023-02-22T13:01:18;99765.59;;;28.17;20.08
16190;BME280;41754;51.498;7.540;2023-02-22T13:03:47;99768.75;;;29.61;18.41
16190;BME280;41754;51.498;7.540;2023-02-22T13:06:35;99757.06;;;26.60;21.34
16190;BME280;41754;51.498;7.540;2023-02-22T13:09:33;99754.72;;;28.61;18.93
16190;BME280;41754;51.498;7.540;2023-02-22T13:12:13;99755.94;;;28.76;18.54
16190;BME280;41754;51.498;7.540;2023-02-22T13:14:52;99758.53;;;28.09;19.42
16190;BME280;41754;51.498;7.540;2023-02-22T13:17:33;99754.44;;;28.43;19.63
16190;BME280;41754;51.498;7.540;2023-02-22T13:20:08;99748.66;;;27.85;19.33
16190;BME280;41754;51.498;7.540;2023-02-22T13:22:44;99750.78;;;27.97;19.42
16190;BME280;41754;51.498;7.540;2023-02-22T13:25:18;99743.47;;;27.31;20.35